sensor_id;sensor_type;location;lat;lon;timestamp;P1;durP1;ratioP1;P2;durP2;ratioP2
52494;SDS011;38405;53.212;5.660;2023-03-01T00:00:02;186.80;;;18.70;;
52494;SDS011;38405;53.212;5.660;2023-03-01T00:02:29;213.32;;;18.00;;
52494;SDS011;38405;53.212;5.660;2023-03-01T00:04:54;204.50;;;18.63;;
52494;SDS011;38405;53.212;5.660;2023-03-01T00:07:20;141.82;;;17.00;;
52494;SDS011;38405;53.212;5.660;2023-03-01T00:09:46;294.40;;;19.73;;
52494;SDS011;38405;53.212;5.660;2023-03-01T00:12:11;178.20;;;15.27;;
52494;SDS011;38405;53.212;5.660;2023-03-01T00:14:37;62.95;;;12.70;;
52494;SDS011;38405;53.212;5.660;2023-03-01T00:17:03;188.00;;;12.40;;
52494;SDS011;38405;53.212;5.660;2023-03-01T00:19:31;56.53;;;14.05;;
52494;SDS011;38405;53.212;5.660;2023-03-01T00:21:57;32.20;;;13.55;;
52494;SDS011;38405;53.212;5.660;2023-03-01T00:24:23;19.48;;;11.57;;
52494;SDS011;38405;53.212;5.660;2023-03-01T00:26:48;50.15;;;11.20;;
52494;SDS011;38405;53.212;5.660;2023-03-01T00:29:20;107.90;;;12.50;;
52494;SDS011;38405;53.212;5.660;2023-03-01T00:31:46;127.80;;;12.13;;
52494;SDS011;38405;53.212;5.660;2023-03-01T00:34:18;100.68;;;13.23;;
52494;SDS011;38405;53.212;5.660;2023-03-01T00:36:46;44.53;;;13.13;;
52494;SDS011;38405;53.212;5.660;2023-03-01T00:39:13;48.58;;;12.45;;
52494;SDS011;38405;53.212;5.660;2023-03-01T00:41:42;120.13;;;10.13;;
52494;SDS011;38405;53.212;5.660;2023-03-01T00:44:11;132.52;;;11.27;;
52494;SDS011;38405;53.212;5.660;2023-03-01T00:46:37;132.10;;;10.43;;
52494;SDS011;38405;53.212;5.660;2023-03-01T00:49:03;65.65;;;9.93;;
52494;SDS011;38405;53.212;5.660;2023-03-01T00:51:29;153.20;;;11.02;;
52494;SDS011;38405;53.212;5.660;2023-03-01T00:53:56;63.83;;;9.10;;
52494;SDS011;38405;53.212;5.660;2023-03-01T00:56:24;56.45;;;7.55;;
52494;SDS011;38405;53.212;5.660;2023-03-01T00:58:50;59.60;;;8.60;;
52494;SDS011;38405;53.212;5.660;2023-03-01T01:01:20;74.88;;;7.82;;
52494;SDS011;38405;53.212;5.660;2023-03-01T01:03:52;64.28;;;7.95;;
52494;SDS011;38405;53.212;5.660;2023-03-01T01:06:20;59.25;;;7.50;;
52494;SDS011;38405;53.212;5.660;2023-03-01T01:09:13;70.07;;;7.88;;
52494;SDS011;38405;53.212;5.660;2023-03-01T01:11:48;88.38;;;9.10;;
52494;SDS011;38405;53.212;5.660;2023-03-01T01:14:15;61.58;;;7.93;;
52494;SDS011;38405;53.212;5.660;2023-03-01T01:16:42;75.20;;;8.18;;
52494;SDS011;38405;53.212;5.660;2023-03-01T01:19:09;67.07;;;9.00;;
52494;SDS011;38405;53.212;5.660;2023-03-01T01:21:35;44.47;;;7.78;;
52494;SDS011;38405;53.212;5.660;2023-03-01T01:24:02;78.10;;;9.45;;
52494;SDS011;38405;53.212;5.660;2023-03-01T01:26:29;100.57;;;8.85;;
52494;SDS011;38405;53.212;5.660;2023-03-01T01:28:56;123.30;;;10.63;;
52494;SDS011;38405;53.212;5.660;2023-03-01T01:31:23;67.18;;;8.10;;
52494;SDS011;38405;53.212;5.660;2023-03-01T01:33:50;89.45;;;7.78;;
52494;SDS011;38405;53.212;5.660;2023-03-01T01:36:17;51.55;;;9.13;;
52494;SDS011;38405;53.212;5.660;2023-03-01T01:38:42;53.00;;;9.65;;
52494;SDS011;38405;53.212;5.660;2023-03-01T01:41:08;49.70;;;7.45;;
52494;SDS011;38405;53.212;5.660;2023-03-01T01:43:46;25.73;;;7.20;;
52494;SDS011;38405;53.212;5.660;2023-03-01T01:46:30;59.10;;;8.20;;
52494;SDS011;38405;53.212;5.660;2023-03-01T01:49:01;34.55;;;8.98;;
52494;SDS011;38405;53.212;5.660;2023-03-01T01:51:33;83.38;;;8.60;;
52494;SDS011;38405;53.212;5.660;2023-03-01T01:54:10;83.43;;;9.27;;
52494;SDS011;38405;53.212;5.660;2023-03-01T01:57:00;124.50;;;10.00;;
52494;SDS011;38405;53.212;5.660;2023-03-01T01:59:31;65.97;;;10.07;;
52494;SDS011;38405;53.212;5.660;2023-03-01T02:02:02;179.32;;;14.20;;
52494;SDS011;38405;53.212;5.660;2023-03-01T02:04:29;107.60;;;9.98;;
52494;SDS011;38405;53.212;5.660;2023-03-01T02:07:07;109.82;;;10.82;;
52494;SDS011;38405;53.212;5.660;2023-03-01T02:09:43;165.40;;;12.32;;
52494;SDS011;38405;53.212;5.660;2023-03-01T02:12:12;171.00;;;9.85;;
52494;SDS011;38405;53.212;5.660;2023-03-01T02:14:44;121.00;;;9.43;;
52494;SDS011;38405;53.212;5.660;2023-03-01T02:17:10;97.22;;;10.10;;
52494;SDS011;38405;53.212;5.660;2023-03-01T02:22:25;98.28;;;9.25;;
52494;SDS011;38405;53.212;5.660;2023-03-01T02:27:20;172.50;;;10.27;;
52494;SDS011;38405;53.212;5.660;2023-03-01T02:29:51;61.28;;;8.60;;
52494;SDS011;38405;53.212;5.660;2023-03-01T02:32:17;132.40;;;9.25;;
52494;SDS011;38405;53.212;5.660;2023-03-01T02:34:50;189.02;;;10.35;;
52494;SDS011;38405;53.212;5.660;2023-03-01T02:37:20;131.32;;;11.32;;
52494;SDS011;38405;53.212;5.660;2023-03-01T02:39:50;151.25;;;11.77;;
52494;SDS011;38405;53.212;5.660;2023-03-01T02:42:28;217.55;;;13.90;;
52494;SDS011;38405;53.212;5.660;2023-03-01T02:44:58;149.52;;;10.00;;
52494;SDS011;38405;53.212;5.660;2023-03-01T02:47:24;153.23;;;13.02;;
52494;SDS011;38405;53.212;5.660;2023-03-01T02:49:50;193.00;;;11.25;;
52494;SDS011;38405;53.212;5.660;2023-03-01T02:55:08;153.85;;;11.35;;
52494;SDS011;38405;53.212;5.660;2023-03-01T02:57:40;160.80;;;10.35;;
52494;SDS011;38405;53.212;5.660;2023-03-01T03:00:12;188.15;;;11.65;;
52494;SDS011;38405;53.212;5.660;2023-03-01T03:02:44;203.15;;;12.40;;
52494;SDS011;38405;53.212;5.660;2023-03-01T03:05:13;227.57;;;12.07;;
52494;SDS011;38405;53.212;5.660;2023-03-01T03:07:42;142.18;;;11.18;;
52494;SDS011;38405;53.212;5.660;2023-03-01T03:10:11;158.30;;;12.10;;
52494;SDS011;38405;53.212;5.660;2023-03-01T03:12:42;141.75;;;10.77;;
52494;SDS011;38405;53.212;5.660;2023-03-01T03:15:08;198.10;;;14.73;;
52494;SDS011;38405;53.212;5.660;2023-03-01T03:17:38;187.02;;;13.63;;
52494;SDS011;38405;53.212;5.660;2023-03-01T03:20:04;327.63;;;16.60;;
52494;SDS011;38405;53.212;5.660;2023-03-01T03:22:35;367.35;;;19.75;;
52494;SDS011;38405;53.212;5.660;2023-03-01T03:25:02;462.25;;;22.38;;
52494;SDS011;38405;53.212;5.660;2023-03-01T03:27:28;470.20;;;19.83;;
52494;SDS011;38405;53.212;5.660;2023-03-01T03:29:53;349.80;;;18.00;;
52494;SDS011;38405;53.212;5.660;2023-03-01T03:32:19;384.02;;;18.73;;
52494;SDS011;38405;53.212;5.660;2023-03-01T03:34:45;451.00;;;18.65;;
52494;SDS011;38405;53.212;5.660;2023-03-01T03:37:10;385.80;;;17.50;;
52494;SDS011;38405;53.212;5.660;2023-03-01T03:39:56;328.38;;;17.75;;
52494;SDS011;38405;53.212;5.660;2023-03-01T03:42:22;330.58;;;17.98;;
52494;SDS011;38405;53.212;5.660;2023-03-01T03:44:48;327.55;;;20.77;;
52494;SDS011;38405;53.212;5.660;2023-03-01T03:47:13;232.00;;;15.27;;
52494;SDS011;38405;53.212;5.660;2023-03-01T03:49:39;217.13;;;16.05;;
52494;SDS011;38405;53.212;5.660;2023-03-01T03:52:05;330.08;;;19.27;;
52494;SDS011;38405;53.212;5.660;2023-03-01T03:54:39;262.77;;;17.05;;
52494;SDS011;38405;53.212;5.660;2023-03-01T03:57:07;173.90;;;15.25;;
52494;SDS011;38405;53.212;5.660;2023-03-01T03:59:38;231.82;;;17.25;;
52494;SDS011;38405;53.212;5.660;2023-03-01T04:02:04;343.20;;;22.17;;
52494;SDS011;38405;53.212;5.660;2023-03-01T04:04:30;268.50;;;16.83;;
52494;SDS011;38405;53.212;5.660;2023-03-01T04:06:56;291.42;;;17.30;;
52494;SDS011;38405;53.212;5.660;2023-03-01T04:09:21;444.48;;;19.25;;
52494;SDS011;38405;53.212;5.660;2023-03-01T04:11:47;404.83;;;18.67;;
52494;SDS011;38405;53.212;5.660;2023-03-01T04:14:13;337.80;;;17.85;;
52494;SDS011;38405;53.212;5.660;2023-03-01T04:16:38;307.45;;;16.85;;
52494;SDS011;38405;53.212;5.660;2023-03-01T04:19:04;202.15;;;12.57;;
52494;SDS011;38405;53.212;5.660;2023-03-01T04:21:31;102.50;;;10.88;;
52494;SDS011;38405;53.212;5.660;2023-03-01T04:23:56;149.32;;;10.85;;
52494;SDS011;38405;53.212;5.660;2023-03-01T04:26:22;123.13;;;11.27;;
52494;SDS011;38405;53.212;5.660;2023-03-01T04:28:48;82.68;;;10.88;;
52494;SDS011;38405;53.212;5.660;2023-03-01T04:31:16;105.60;;;11.40;;
52494;SDS011;38405;53.212;5.660;2023-03-01T04:33:47;76.80;;;10.95;;
52494;SDS011;38405;53.212;5.660;2023-03-01T04:36:21;104.80;;;10.10;;
52494;SDS011;38405;53.212;5.660;2023-03-01T04:38:48;42.30;;;9.40;;
52494;SDS011;38405;53.212;5.660;2023-03-01T04:41:18;76.18;;;11.65;;
52494;SDS011;38405;53.212;5.660;2023-03-01T04:43:46;29.77;;;9.93;;
52494;SDS011;38405;53.212;5.660;2023-03-01T04:46:17;40.22;;;9.88;;
52494;SDS011;38405;53.212;5.660;2023-03-01T04:48:44;67.07;;;9.05;;
52494;SDS011;38405;53.212;5.660;2023-03-01T04:51:10;38.30;;;9.40;;
52494;SDS011;38405;53.212;5.660;2023-03-01T04:53:39;56.80;;;9.13;;
52494;SDS011;38405;53.212;5.660;2023-03-01T04:56:06;97.43;;;10.07;;
52494;SDS011;38405;53.212;5.660;2023-03-01T04:58:31;259.33;;;12.23;;
52494;SDS011;38405;53.212;5.660;2023-03-01T05:00:57;386.25;;;14.88;;
52494;SDS011;38405;53.212;5.660;2023-03-01T05:03:23;360.30;;;14.82;;
52494;SDS011;38405;53.212;5.660;2023-03-01T05:05:50;454.92;;;18.30;;
52494;SDS011;38405;53.212;5.660;2023-03-01T05:08:17;411.70;;;19.63;;
52494;SDS011;38405;53.212;5.660;2023-03-01T05:10:44;489.73;;;17.08;;
52494;SDS011;38405;53.212;5.660;2023-03-01T05:13:11;342.70;;;13.05;;
52494;SDS011;38405;53.212;5.660;2023-03-01T05:15:46;413.23;;;15.70;;
52494;SDS011;38405;53.212;5.660;2023-03-01T05:18:13;487.80;;;20.45;;
52494;SDS011;38405;53.212;5.660;2023-03-01T05:20:42;534.60;;;19.05;;
52494;SDS011;38405;53.212;5.660;2023-03-01T05:23:09;553.47;;;20.73;;
52494;SDS011;38405;53.212;5.660;2023-03-01T05:25:38;374.25;;;15.77;;
52494;SDS011;38405;53.212;5.660;2023-03-01T05:28:05;169.30;;;11.95;;
52494;SDS011;38405;53.212;5.660;2023-03-01T05:30:35;258.77;;;14.18;;
52494;SDS011;38405;53.212;5.660;2023-03-01T05:33:01;178.93;;;11.63;;
52494;SDS011;38405;53.212;5.660;2023-03-01T05:35:27;163.10;;;10.40;;
52494;SDS011;38405;53.212;5.660;2023-03-01T05:37:54;40.33;;;9.60;;
52494;SDS011;38405;53.212;5.660;2023-03-01T05:40:21;212.63;;;14.23;;
52494;SDS011;38405;53.212;5.660;2023-03-01T05:42:49;129.05;;;11.38;;
52494;SDS011;38405;53.212;5.660;2023-03-01T05:45:20;97.47;;;10.15;;
52494;SDS011;38405;53.212;5.660;2023-03-01T05:47:47;69.38;;;9.90;;
52494;SDS011;38405;53.212;5.660;2023-03-01T05:50:18;106.55;;;10.07;;
52494;SDS011;38405;53.212;5.660;2023-03-01T05:52:46;99.00;;;11.23;;
52494;SDS011;38405;53.212;5.660;2023-03-01T05:55:13;96.65;;;9.40;;
52494;SDS011;38405;53.212;5.660;2023-03-01T05:57:46;74.00;;;9.07;;
52494;SDS011;38405;53.212;5.660;2023-03-01T06:00:13;42.75;;;9.38;;
52494;SDS011;38405;53.212;5.660;2023-03-01T06:02:40;61.92;;;8.60;;
52494;SDS011;38405;53.212;5.660;2023-03-01T06:05:10;39.72;;;8.55;;
52494;SDS011;38405;53.212;5.660;2023-03-01T06:07:37;36.17;;;7.80;;
52494;SDS011;38405;53.212;5.660;2023-03-01T06:10:04;37.60;;;10.52;;
52494;SDS011;38405;53.212;5.660;2023-03-01T06:12:34;74.18;;;6.78;;
52494;SDS011;38405;53.212;5.660;2023-03-01T06:15:01;124.32;;;10.98;;
52494;SDS011;38405;53.212;5.660;2023-03-01T06:17:30;40.72;;;7.47;;
52494;SDS011;38405;53.212;5.660;2023-03-01T06:19:57;51.65;;;9.43;;
52494;SDS011;38405;53.212;5.660;2023-03-01T06:22:23;37.22;;;8.50;;
52494;SDS011;38405;53.212;5.660;2023-03-01T06:24:49;40.65;;;8.82;;
52494;SDS011;38405;53.212;5.660;2023-03-01T06:27:15;25.23;;;8.52;;
52494;SDS011;38405;53.212;5.660;2023-03-01T06:29:41;47.20;;;9.07;;
52494;SDS011;38405;53.212;5.660;2023-03-01T06:32:06;43.50;;;9.35;;
52494;SDS011;38405;53.212;5.660;2023-03-01T06:34:33;20.00;;;7.97;;
52494;SDS011;38405;53.212;5.660;2023-03-01T06:36:59;21.80;;;8.02;;
52494;SDS011;38405;53.212;5.660;2023-03-01T06:39:24;25.60;;;8.93;;
52494;SDS011;38405;53.212;5.660;2023-03-01T06:42:02;9.43;;;7.68;;
52494;SDS011;38405;53.212;5.660;2023-03-01T06:44:28;20.80;;;7.68;;
52494;SDS011;38405;53.212;5.660;2023-03-01T06:46:54;51.15;;;10.05;;
52494;SDS011;38405;53.212;5.660;2023-03-01T06:49:20;25.70;;;8.27;;
52494;SDS011;38405;53.212;5.660;2023-03-01T06:51:46;54.58;;;8.70;;
52494;SDS011;38405;53.212;5.660;2023-03-01T06:54:12;56.90;;;8.88;;
52494;SDS011;38405;53.212;5.660;2023-03-01T06:56:38;95.35;;;9.90;;
52494;SDS011;38405;53.212;5.660;2023-03-01T06:59:05;109.50;;;9.82;;
52494;SDS011;38405;53.212;5.660;2023-03-01T07:01:31;237.75;;;12.18;;
52494;SDS011;38405;53.212;5.660;2023-03-01T07:03:57;86.40;;;10.05;;
52494;SDS011;38405;53.212;5.660;2023-03-01T07:06:22;57.05;;;10.02;;
52494;SDS011;38405;53.212;5.660;2023-03-01T07:08:51;51.97;;;11.02;;
52494;SDS011;38405;53.212;5.660;2023-03-01T07:11:16;75.03;;;11.85;;
52494;SDS011;38405;53.212;5.660;2023-03-01T07:13:42;75.20;;;11.20;;
52494;SDS011;38405;53.212;5.660;2023-03-01T07:16:08;21.08;;;9.57;;
52494;SDS011;38405;53.212;5.660;2023-03-01T07:18:33;13.23;;;8.75;;
52494;SDS011;38405;53.212;5.660;2023-03-01T07:21:03;12.25;;;9.02;;
52494;SDS011;38405;53.212;5.660;2023-03-01T07:23:30;11.93;;;8.98;;
52494;SDS011;38405;53.212;5.660;2023-03-01T07:25:56;13.65;;;9.68;;
52494;SDS011;38405;53.212;5.660;2023-03-01T07:28:22;13.23;;;9.80;;
52494;SDS011;38405;53.212;5.660;2023-03-01T07:30:48;14.77;;;9.50;;
52494;SDS011;38405;53.212;5.660;2023-03-01T07:33:14;15.63;;;9.60;;
52494;SDS011;38405;53.212;5.660;2023-03-01T07:35:39;12.23;;;8.40;;
52494;SDS011;38405;53.212;5.660;2023-03-01T07:38:05;12.18;;;9.02;;
52494;SDS011;38405;53.212;5.660;2023-03-01T07:40:31;13.50;;;8.93;;
52494;SDS011;38405;53.212;5.660;2023-03-01T07:42:57;13.38;;;9.32;;
52494;SDS011;38405;53.212;5.660;2023-03-01T07:45:24;15.77;;;9.48;;
52494;SDS011;38405;53.212;5.660;2023-03-01T07:47:51;14.10;;;9.80;;
52494;SDS011;38405;53.212;5.660;2023-03-01T07:50:17;11.77;;;8.73;;
52494;SDS011;38405;53.212;5.660;2023-03-01T07:52:45;13.50;;;9.02;;
52494;SDS011;38405;53.212;5.660;2023-03-01T07:55:12;26.60;;;9.23;;
52494;SDS011;38405;53.212;5.660;2023-03-01T07:57:37;12.85;;;9.15;;
52494;SDS011;38405;53.212;5.660;2023-03-01T08:00:04;10.45;;;8.27;;
52494;SDS011;38405;53.212;5.660;2023-03-01T08:02:32;11.93;;;7.97;;
52494;SDS011;38405;53.212;5.660;2023-03-01T08:04:57;9.48;;;7.93;;
52494;SDS011;38405;53.212;5.660;2023-03-01T08:07:23;9.38;;;7.72;;
52494;SDS011;38405;53.212;5.660;2023-03-01T08:09:49;11.25;;;8.48;;
52494;SDS011;38405;53.212;5.660;2023-03-01T08:12:14;11.75;;;8.35;;
52494;SDS011;38405;53.212;5.660;2023-03-01T08:14:43;10.38;;;8.43;;
52494;SDS011;38405;53.212;5.660;2023-03-01T08:17:08;10.00;;;7.85;;
52494;SDS011;38405;53.212;5.660;2023-03-01T08:19:37;9.43;;;7.75;;
52494;SDS011;38405;53.212;5.660;2023-03-01T08:22:03;9.52;;;7.40;;
52494;SDS011;38405;53.212;5.660;2023-03-01T08:24:28;8.02;;;7.15;;
52494;SDS011;38405;53.212;5.660;2023-03-01T08:26:54;7.78;;;6.72;;
52494;SDS011;38405;53.212;5.660;2023-03-01T08:29:22;7.60;;;6.75;;
52494;SDS011;38405;53.212;5.660;2023-03-01T08:31:49;7.80;;;6.95;;
52494;SDS011;38405;53.212;5.660;2023-03-01T08:34:16;7.82;;;6.63;;
52494;SDS011;38405;53.212;5.660;2023-03-01T08:36:44;7.35;;;6.45;;
52494;SDS011;38405;53.212;5.660;2023-03-01T08:39:11;7.70;;;6.88;;
52494;SDS011;38405;53.212;5.660;2023-03-01T08:41:38;9.40;;;7.10;;
52494;SDS011;38405;53.212;5.660;2023-03-01T08:44:08;10.65;;;8.27;;
52494;SDS011;38405;53.212;5.660;2023-03-01T08:46:36;9.20;;;7.35;;
52494;SDS011;38405;53.212;5.660;2023-03-01T08:49:06;12.75;;;8.93;;
52494;SDS011;38405;53.212;5.660;2023-03-01T08:51:34;15.27;;;9.35;;
52494;SDS011;38405;53.212;5.660;2023-03-01T08:54:12;13.50;;;10.18;;
52494;SDS011;38405;53.212;5.660;2023-03-01T08:56:40;13.68;;;10.40;;
52494;SDS011;38405;53.212;5.660;2023-03-01T08:59:06;12.57;;;10.07;;
52494;SDS011;38405;53.212;5.660;2023-03-01T09:01:32;13.13;;;10.55;;
52494;SDS011;38405;53.212;5.660;2023-03-01T09:03:58;15.43;;;12.05;;
52494;SDS011;38405;53.212;5.660;2023-03-01T09:06:24;14.60;;;11.13;;
52494;SDS011;38405;53.212;5.660;2023-03-01T09:08:50;15.10;;;11.75;;
52494;SDS011;38405;53.212;5.660;2023-03-01T09:11:20;16.50;;;11.93;;
52494;SDS011;38405;53.212;5.660;2023-03-01T09:13:46;18.88;;;14.25;;
52494;SDS011;38405;53.212;5.660;2023-03-01T09:16:14;21.45;;;14.05;;
52494;SDS011;38405;53.212;5.660;2023-03-01T09:18:42;17.48;;;13.65;;
52494;SDS011;38405;53.212;5.660;2023-03-01T09:21:27;17.10;;;13.80;;
52494;SDS011;38405;53.212;5.660;2023-03-01T09:23:53;19.52;;;13.50;;
52494;SDS011;38405;53.212;5.660;2023-03-01T09:26:21;18.05;;;13.60;;
52494;SDS011;38405;53.212;5.660;2023-03-01T09:28:52;17.65;;;12.88;;
52494;SDS011;38405;53.212;5.660;2023-03-01T09:31:19;16.02;;;12.90;;
52494;SDS011;38405;53.212;5.660;2023-03-01T09:33:46;22.38;;;13.57;;
52494;SDS011;38405;53.212;5.660;2023-03-01T09:36:15;16.25;;;12.52;;
52494;SDS011;38405;53.212;5.660;2023-03-01T09:38:43;19.60;;;13.15;;
52494;SDS011;38405;53.212;5.660;2023-03-01T09:43:56;17.27;;;13.25;;
52494;SDS011;38405;53.212;5.660;2023-03-01T09:46:26;15.48;;;12.43;;
52494;SDS011;38405;53.212;5.660;2023-03-01T09:48:57;15.98;;;12.95;;
52494;SDS011;38405;53.212;5.660;2023-03-01T09:51:30;17.13;;;12.45;;
52494;SDS011;38405;53.212;5.660;2023-03-01T09:53:58;18.05;;;11.98;;
52494;SDS011;38405;53.212;5.660;2023-03-01T09:56:33;16.05;;;12.50;;
52494;SDS011;38405;53.212;5.660;2023-03-01T10:04:54;14.23;;;11.30;;
52494;SDS011;38405;53.212;5.660;2023-03-01T10:08:02;14.05;;;11.20;;
52494;SDS011;38405;53.212;5.660;2023-03-01T10:10:46;12.50;;;11.07;;
52494;SDS011;38405;53.212;5.660;2023-03-01T10:13:23;15.30;;;11.07;;
52494;SDS011;38405;53.212;5.660;2023-03-01T10:19:22;14.27;;;11.55;;
52494;SDS011;38405;53.212;5.660;2023-03-01T10:21:52;12.60;;;10.05;;
52494;SDS011;38405;53.212;5.660;2023-03-01T10:24:19;14.75;;;11.52;;
52494;SDS011;38405;53.212;5.660;2023-03-01T10:26:56;15.32;;;11.25;;
52494;SDS011;38405;53.212;5.660;2023-03-01T10:32:28;14.30;;;10.80;;
52494;SDS011;38405;53.212;5.660;2023-03-01T10:34:54;17.08;;;10.98;;
52494;SDS011;38405;53.212;5.660;2023-03-01T10:37:22;12.75;;;9.90;;
52494;SDS011;38405;53.212;5.660;2023-03-01T10:40:06;13.95;;;10.07;;
52494;SDS011;38405;53.212;5.660;2023-03-01T10:42:46;11.60;;;9.65;;
52494;SDS011;38405;53.212;5.660;2023-03-01T10:53:26;14.35;;;10.52;;
52494;SDS011;38405;53.212;5.660;2023-03-01T10:56:13;14.48;;;10.73;;
52494;SDS011;38405;53.212;5.660;2023-03-01T11:01:26;12.23;;;10.10;;
52494;SDS011;38405;53.212;5.660;2023-03-01T11:06:33;10.52;;;9.43;;
52494;SDS011;38405;53.212;5.660;2023-03-01T11:09:19;10.20;;;8.63;;
52494;SDS011;38405;53.212;5.660;2023-03-01T11:11:59;12.18;;;10.07;;
52494;SDS011;38405;53.212;5.660;2023-03-01T11:14:26;13.52;;;9.10;;
52494;SDS011;38405;53.212;5.660;2023-03-01T11:17:00;11.05;;;9.23;;
52494;SDS011;38405;53.212;5.660;2023-03-01T11:19:28;10.93;;;9.00;;
52494;SDS011;38405;53.212;5.660;2023-03-01T11:22:14;10.95;;;8.40;;
52494;SDS011;38405;53.212;5.660;2023-03-01T11:24:51;10.07;;;8.38;;
52494;SDS011;38405;53.212;5.660;2023-03-01T11:27:23;9.45;;;8.35;;
52494;SDS011;38405;53.212;5.660;2023-03-01T11:29:59;9.13;;;7.25;;
52494;SDS011;38405;53.212;5.660;2023-03-01T11:32:47;10.77;;;9.02;;
52494;SDS011;38405;53.212;5.660;2023-03-01T11:35:26;9.18;;;8.10;;
52494;SDS011;38405;53.212;5.660;2023-03-01T11:43:54;9.10;;;8.00;;
52494;SDS011;38405;53.212;5.660;2023-03-01T11:52:03;14.77;;;9.00;;
52494;SDS011;38405;53.212;5.660;2023-03-01T11:55:14;11.85;;;9.02;;
52494;SDS011;38405;53.212;5.660;2023-03-01T12:03:42;9.38;;;8.32;;
52494;SDS011;38405;53.212;5.660;2023-03-01T12:12:36;11.13;;;9.48;;
52494;SDS011;38405;53.212;5.660;2023-03-01T12:26:10;11.45;;;9.43;;
52494;SDS011;38405;53.212;5.660;2023-03-01T12:28:57;14.20;;;9.77;;
52494;SDS011;38405;53.212;5.660;2023-03-01T12:37:46;12.43;;;9.45;;
52494;SDS011;38405;53.212;5.660;2023-03-01T12:40:32;11.88;;;9.10;;
52494;SDS011;38405;53.212;5.660;2023-03-01T12:46:28;12.82;;;9.88;;
52494;SDS011;38405;53.212;5.660;2023-03-01T12:49:28;12.00;;;10.50;;
52494;SDS011;38405;53.212;5.660;2023-03-01T12:52:14;11.73;;;10.15;;
52494;SDS011;38405;53.212;5.660;2023-03-01T12:54:47;13.82;;;11.05;;
52494;SDS011;38405;53.212;5.660;2023-03-01T12:57:50;12.90;;;10.30;;
52494;SDS011;38405;53.212;5.660;2023-03-01T13:01:14;13.18;;;10.20;;
52494;SDS011;38405;53.212;5.660;2023-03-01T13:06:12;15.35;;;10.95;;
52494;SDS011;38405;53.212;5.660;2023-03-01T13:11:36;14.40;;;10.80;;
52494;SDS011;38405;53.212;5.660;2023-03-01T13:16:45;15.73;;;12.20;;
52494;SDS011;38405;53.212;5.660;2023-03-01T13:19:18;13.93;;;11.50;;
52494;SDS011;38405;53.212;5.660;2023-03-01T13:21:52;15.98;;;11.45;;
52494;SDS011;38405;53.212;5.660;2023-03-01T13:25:02;13.57;;;11.02;;
52494;SDS011;38405;53.212;5.660;2023-03-01T13:29:57;13.90;;;11.18;;
52494;SDS011;38405;53.212;5.660;2023-03-01T13:32:28;14.80;;;11.15;;
52494;SDS011;38405;53.212;5.660;2023-03-01T13:35:00;17.25;;;11.63;;
52494;SDS011;38405;53.212;5.660;2023-03-01T13:37:48;15.15;;;11.65;;
52494;SDS011;38405;53.212;5.660;2023-03-01T13:47:56;17.67;;;12.02;;
52494;SDS011;38405;53.212;5.660;2023-03-01T13:50:31;16.17;;;12.18;;
52494;SDS011;38405;53.212;5.660;2023-03-01T13:53:02;15.27;;;11.45;;
52494;SDS011;38405;53.212;5.660;2023-03-01T13:55:46;13.57;;;11.48;;
52494;SDS011;38405;53.212;5.660;2023-03-01T14:00:54;13.65;;;10.88;;
52494;SDS011;38405;53.212;5.660;2023-03-01T14:03:21;14.50;;;10.77;;
52494;SDS011;38405;53.212;5.660;2023-03-01T14:08:35;14.02;;;11.02;;
52494;SDS011;38405;53.212;5.660;2023-03-01T14:19:42;12.82;;;10.18;;
52494;SDS011;38405;53.212;5.660;2023-03-01T14:24:37;13.50;;;10.52;;
52494;SDS011;38405;53.212;5.660;2023-03-01T14:27:11;13.05;;;10.25;;
52494;SDS011;38405;53.212;5.660;2023-03-01T14:29:41;13.27;;;10.10;;
52494;SDS011;38405;53.212;5.660;2023-03-01T14:34:38;13.40;;;11.20;;
52494;SDS011;38405;53.212;5.660;2023-03-01T14:37:10;13.43;;;10.70;;
52494;SDS011;38405;53.212;5.660;2023-03-01T14:39:42;16.52;;;10.35;;
52494;SDS011;38405;53.212;5.660;2023-03-01T14:42:08;16.15;;;10.15;;
52494;SDS011;38405;53.212;5.660;2023-03-01T14:44:37;16.98;;;12.23;;
52494;SDS011;38405;53.212;5.660;2023-03-01T14:47:02;17.02;;;11.05;;
52494;SDS011;38405;53.212;5.660;2023-03-01T14:49:30;15.93;;;11.75;;
52494;SDS011;38405;53.212;5.660;2023-03-01T14:54:28;17.25;;;11.63;;
52494;SDS011;38405;53.212;5.660;2023-03-01T14:57:01;13.35;;;9.95;;
52494;SDS011;38405;53.212;5.660;2023-03-01T14:59:27;15.65;;;11.43;;
52494;SDS011;38405;53.212;5.660;2023-03-01T15:01:55;15.18;;;10.40;;
52494;SDS011;38405;53.212;5.660;2023-03-01T15:04:22;13.15;;;10.50;;
52494;SDS011;38405;53.212;5.660;2023-03-01T15:06:51;15.68;;;11.35;;
52494;SDS011;38405;53.212;5.660;2023-03-01T15:09:19;16.80;;;10.43;;
52494;SDS011;38405;53.212;5.660;2023-03-01T15:11:46;16.83;;;11.27;;
52494;SDS011;38405;53.212;5.660;2023-03-01T15:19:58;13.55;;;9.27;;
52494;SDS011;38405;53.212;5.660;2023-03-01T15:22:27;14.25;;;10.32;;
52494;SDS011;38405;53.212;5.660;2023-03-01T15:24:53;15.18;;;10.30;;
52494;SDS011;38405;53.212;5.660;2023-03-01T15:27:21;13.88;;;9.93;;
52494;SDS011;38405;53.212;5.660;2023-03-01T15:29:52;14.73;;;10.38;;
52494;SDS011;38405;53.212;5.660;2023-03-01T15:32:34;12.40;;;9.68;;
52494;SDS011;38405;53.212;5.660;2023-03-01T15:40:57;15.15;;;9.38;;
52494;SDS011;38405;53.212;5.660;2023-03-01T15:43:41;11.63;;;8.75;;
52494;SDS011;38405;53.212;5.660;2023-03-01T15:48:48;11.10;;;8.43;;
52494;SDS011;38405;53.212;5.660;2023-03-01T15:51:17;9.73;;;7.95;;
52494;SDS011;38405;53.212;5.660;2023-03-01T15:53:49;13.50;;;8.85;;
52494;SDS011;38405;53.212;5.660;2023-03-01T15:56:16;10.82;;;8.85;;
52494;SDS011;38405;53.212;5.660;2023-03-01T15:58:42;9.43;;;8.20;;
52494;SDS011;38405;53.212;5.660;2023-03-01T16:01:14;10.27;;;7.90;;
52494;SDS011;38405;53.212;5.660;2023-03-01T16:03:42;12.05;;;8.77;;
52494;SDS011;38405;53.212;5.660;2023-03-01T16:06:17;10.60;;;8.43;;
52494;SDS011;38405;53.212;5.660;2023-03-01T16:08:42;14.52;;;10.30;;
52494;SDS011;38405;53.212;5.660;2023-03-01T16:11:16;11.95;;;8.93;;
52494;SDS011;38405;53.212;5.660;2023-03-01T16:13:45;14.73;;;10.70;;
52494;SDS011;38405;53.212;5.660;2023-03-01T16:16:12;14.52;;;11.02;;
52494;SDS011;38405;53.212;5.660;2023-03-01T16:18:41;15.65;;;9.43;;
52494;SDS011;38405;53.212;5.660;2023-03-01T16:21:10;16.00;;;9.68;;
52494;SDS011;38405;53.212;5.660;2023-03-01T16:23:43;15.95;;;9.45;;
52494;SDS011;38405;53.212;5.660;2023-03-01T16:26:09;14.88;;;9.65;;
52494;SDS011;38405;53.212;5.660;2023-03-01T16:28:35;14.27;;;9.70;;
52494;SDS011;38405;53.212;5.660;2023-03-01T16:31:01;16.55;;;10.15;;
52494;SDS011;38405;53.212;5.660;2023-03-01T16:33:26;16.10;;;10.35;;
52494;SDS011;38405;53.212;5.660;2023-03-01T16:35:52;15.38;;;11.13;;
52494;SDS011;38405;53.212;5.660;2023-03-01T16:38:18;16.13;;;11.52;;
52494;SDS011;38405;53.212;5.660;2023-03-01T16:40:47;16.00;;;11.52;;
52494;SDS011;38405;53.212;5.660;2023-03-01T16:43:15;19.58;;;12.73;;
52494;SDS011;38405;53.212;5.660;2023-03-01T16:45:40;17.77;;;12.55;;
52494;SDS011;38405;53.212;5.660;2023-03-01T16:48:09;19.65;;;12.95;;
52494;SDS011;38405;53.212;5.660;2023-03-01T16:50:35;19.85;;;13.82;;
52494;SDS011;38405;53.212;5.660;2023-03-01T16:53:03;23.05;;;13.82;;